createdAt,value
2022-09-27T00:00:44.715Z,15.53
2022-09-27T00:03:12.309Z,15.46
2022-09-27T00:05:39.414Z,15.45
2022-09-27T00:08:06.528Z,15.42
2022-09-27T00:10:33.302Z,15.41
2022-09-27T00:13:00.115Z,15.42
2022-09-27T00:15:27.128Z,15.44
2022-09-27T00:17:53.904Z,15.45
2022-09-27T00:20:21.234Z,15.48
2022-09-27T00:22:49.007Z,15.42
2022-09-27T00:25:18.319Z,15.41
2022-09-27T00:27:45.217Z,15.41
2022-09-27T00:30:12.523Z,15.42
2022-09-27T00:32:39.605Z,15.42
2022-09-27T00:35:06.544Z,15.42
2022-09-27T00:37:33.414Z,15.43
2022-09-27T00:40:00.220Z,15.43
2022-09-27T00:42:26.952Z,15.43
2022-09-27T00:45:17.981Z,15.39
2022-09-27T00:47:50.586Z,15.40
2022-09-27T00:50:38.020Z,15.39
2022-09-27T00:53:31.059Z,15.39
2022-09-27T00:56:01.323Z,15.40
2022-09-27T00:58:34.527Z,15.40
2022-09-27T01:01:03.871Z,15.40
2022-09-27T01:03:47.720Z,15.40
2022-09-27T01:06:14.838Z,15.41
2022-09-27T01:08:41.495Z,15.41
2022-09-27T01:11:08.337Z,15.41
2022-09-27T01:13:59.207Z,15.41
2022-09-27T01:16:43.180Z,15.42
2022-09-27T01:19:19.971Z,15.40
2022-09-27T01:22:16.287Z,15.40
2022-09-27T01:25:07.306Z,15.41
2022-09-27T01:28:05.455Z,15.39
2022-09-27T01:30:45.617Z,15.36
2022-09-27T01:33:36.920Z,15.37
2022-09-27T01:36:31.135Z,15.37
2022-09-27T01:39:13.733Z,15.36
2022-09-27T01:42:03.386Z,15.36
2022-09-27T01:44:51.811Z,15.35
2022-09-27T01:47:23.787Z,15.35
2022-09-27T01:50:09.331Z,15.35
2022-09-27T01:52:51.002Z,15.32
2022-09-27T01:55:26.696Z,15.32
2022-09-27T01:58:46.268Z,15.31
2022-09-27T02:01:14.524Z,15.26
2022-09-27T02:03:44.922Z,15.24
2022-09-27T02:06:33.911Z,15.25
2022-09-27T02:09:20.551Z,15.25
2022-09-27T02:11:56.459Z,15.28
2022-09-27T02:14:33.559Z,15.29
2022-09-27T02:17:21.816Z,15.28
2022-09-27T02:20:05.230Z,15.27
2022-09-27T02:22:48.217Z,15.26
2022-09-27T02:25:25.832Z,15.19
2022-09-27T02:28:05.014Z,15.18
2022-09-27T02:30:34.462Z,15.17
2022-09-27T02:33:14.960Z,15.24
2022-09-27T02:35:42.245Z,15.14
2022-09-27T02:38:09.062Z,15.04
2022-09-27T02:40:44.404Z,14.96
2022-09-27T02:43:12.577Z,14.99
2022-09-27T02:45:58.369Z,15.02
2022-09-27T02:48:41.697Z,15.04
2022-09-27T02:51:17.670Z,15.05
2022-09-27T02:54:10.731Z,15.06
2022-09-27T02:57:17.580Z,15.02
2022-09-27T03:00:16.286Z,15.02
2022-09-27T03:03:16.386Z,15.03
2022-09-27T03:06:09.819Z,15.03
2022-09-27T03:08:43.938Z,15.03
2022-09-27T03:11:11.320Z,15.02
2022-09-27T03:13:55.787Z,15.04
2022-09-27T03:16:26.663Z,15.01
2022-09-27T03:19:07.123Z,15.02
2022-09-27T03:21:54.127Z,15.02
2022-09-27T03:24:20.842Z,15.02
2022-09-27T03:26:47.571Z,15.02
2022-09-27T03:29:15.221Z,15.02
2022-09-27T03:31:45.923Z,15.01
2022-09-27T03:34:35.630Z,15.01
2022-09-27T03:37:02.416Z,15.00
2022-09-27T03:39:29.296Z,14.99
2022-09-27T03:41:56.555Z,14.97
2022-09-27T03:44:23.285Z,14.97
2022-09-27T03:46:50.027Z,14.98
2022-09-27T03:49:17.661Z,14.98
2022-09-27T03:51:44.381Z,14.98
2022-09-27T03:54:11.069Z,14.94
2022-09-27T03:56:37.854Z,14.92
2022-09-27T03:59:04.568Z,14.92
2022-09-27T04:01:51.346Z,14.93
2022-09-27T04:04:38.134Z,14.91
2022-09-27T04:07:04.924Z,14.87
2022-09-27T04:09:31.645Z,14.86
2022-09-27T04:12:01.266Z,14.84
2022-09-27T04:14:27.990Z,14.82
2022-09-27T04:17:17.208Z,14.79
2022-09-27T04:20:03.399Z,14.77
2022-09-27T04:22:31.217Z,14.79
2022-09-27T04:24:58.172Z,14.74
2022-09-27T04:27:34.531Z,14.73
2022-09-27T04:30:01.718Z,14.75
2022-09-27T04:32:54.175Z,14.74
2022-09-27T04:36:08.483Z,14.75
2022-09-27T04:38:42.991Z,14.70
2022-09-27T04:41:10.496Z,14.68
2022-09-27T04:43:39.767Z,14.66
2022-09-27T04:46:07.029Z,14.66
2022-09-27T04:48:34.383Z,14.66
2022-09-27T04:51:02.524Z,14.66
2022-09-27T04:53:29.995Z,14.23
2022-09-27T04:55:58.608Z,13.67
2022-09-27T04:58:25.570Z,13.33
2022-09-27T05:00:52.472Z,13.02
2022-09-27T05:03:45.074Z,12.92
2022-09-27T05:06:13.732Z,12.77
2022-09-27T05:08:41.426Z,12.67
2022-09-27T05:11:29.451Z,12.45
2022-09-27T05:17:08.047Z,12.16
2022-09-27T05:19:46.965Z,12.15
2022-09-27T05:22:28.149Z,12.26
2022-09-27T05:25:05.557Z,12.31
2022-09-27T05:27:33.135Z,12.35
2022-09-27T05:30:01.902Z,12.35
2022-09-27T05:32:48.144Z,12.23
2022-09-27T05:35:26.615Z,12.15
2022-09-27T05:37:59.104Z,12.17
2022-09-27T05:40:40.950Z,12.26
2022-09-27T05:43:09.563Z,12.26
2022-09-27T05:45:36.846Z,12.30
2022-09-27T05:48:05.442Z,12.37
2022-09-27T05:50:36.711Z,12.45
2022-09-27T05:53:03.880Z,12.47
2022-09-27T05:55:30.568Z,12.50
2022-09-27T05:58:00.550Z,12.59
2022-09-27T06:00:38.335Z,12.67
2022-09-27T06:03:20.354Z,12.63
2022-09-27T06:06:23.807Z,12.52
2022-09-27T06:08:55.583Z,12.56
2022-09-27T06:11:24.274Z,12.56
2022-09-27T06:13:50.963Z,12.55
2022-09-27T06:16:17.713Z,12.62
2022-09-27T06:18:45.715Z,12.73
2022-09-27T06:21:13.471Z,12.78
2022-09-27T06:23:44.257Z,12.79
2022-09-27T06:26:20.250Z,12.62
2022-09-27T06:28:54.957Z,12.59
2022-09-27T06:31:22.346Z,12.47
2022-09-27T06:33:52.935Z,12.45
2022-09-27T06:36:20.406Z,12.57
2022-09-27T06:38:48.291Z,12.62
2022-09-27T06:41:25.873Z,12.70
2022-09-27T06:44:16.613Z,12.91
2022-09-27T06:46:43.427Z,12.90
2022-09-27T06:49:43.567Z,12.85
2022-09-27T06:52:10.852Z,12.83
2022-09-27T06:54:37.548Z,12.88
2022-09-27T06:57:04.327Z,12.80
2022-09-27T06:59:49.662Z,12.59
2022-09-27T07:02:34.928Z,12.65
2022-09-27T07:05:14.862Z,12.76
2022-09-27T07:07:49.116Z,12.80
2022-09-27T07:10:18.858Z,12.78
2022-09-27T07:12:48.885Z,12.77
2022-09-27T07:15:16.894Z,12.72
2022-09-27T07:17:44.179Z,12.79
2022-09-27T07:20:11.766Z,12.86
2022-09-27T07:22:44.184Z,13.01
2022-09-27T07:25:12.113Z,13.04
2022-09-27T07:27:41.250Z,13.10
2022-09-27T07:30:10.646Z,13.14
2022-09-27T07:32:38.055Z,13.24
2022-09-27T07:35:08.594Z,13.33
2022-09-27T07:37:37.423Z,13.42
2022-09-27T07:40:07.447Z,13.43
2022-09-27T07:42:34.626Z,13.57
2022-09-27T07:45:01.272Z,13.84
2022-09-27T07:48:11.529Z,13.97
2022-09-27T07:51:08.423Z,14.06
2022-09-27T07:53:47.823Z,14.26
2022-09-27T07:56:35.604Z,14.41
2022-09-27T07:59:04.311Z,14.41
2022-09-27T08:01:31.100Z,14.42
2022-09-27T08:03:58.665Z,14.40
2022-09-27T08:06:26.305Z,14.53
2022-09-27T08:08:54.916Z,14.39
2022-09-27T08:11:22.163Z,14.24
2022-09-27T08:13:52.529Z,14.18
2022-09-27T08:16:23.042Z,14.12
2022-09-27T08:19:26.961Z,14.20
2022-09-27T08:22:07.386Z,14.22
2022-09-27T08:24:57.569Z,14.12
2022-09-27T08:27:39.372Z,14.06
2022-09-27T08:30:18.875Z,13.96
2022-09-27T08:32:45.713Z,13.94
2022-09-27T08:35:15.607Z,14.06
2022-09-27T08:37:42.461Z,14.10
2022-09-27T08:40:14.393Z,13.89
2022-09-27T08:42:50.436Z,14.00
2022-09-27T08:45:29.779Z,14.06
2022-09-27T08:48:00.286Z,14.00
2022-09-27T08:50:40.178Z,14.03
2022-09-27T08:53:34.174Z,14.29
2022-09-27T08:56:03.407Z,14.46
2022-09-27T08:58:46.599Z,14.31
2022-09-27T09:01:22.989Z,14.13
2022-09-27T09:04:04.433Z,13.89
2022-09-27T09:06:44.070Z,13.80
2022-09-27T09:09:43.560Z,13.77
2022-09-27T09:12:47.310Z,13.76
2022-09-27T09:15:58.188Z,13.50
2022-09-27T09:19:00.664Z,13.46
2022-09-27T09:22:02.838Z,13.43
2022-09-27T09:24:37.400Z,13.45
2022-09-27T09:27:25.407Z,13.47
2022-09-27T09:30:18.595Z,13.51
2022-09-27T09:32:58.352Z,13.68
2022-09-27T09:35:31.174Z,13.81
2022-09-27T09:38:01.847Z,13.98
2022-09-27T09:40:30.240Z,14.11
2022-09-27T09:43:31.196Z,14.10
2022-09-27T09:46:04.044Z,14.06
2022-09-27T09:48:47.038Z,14.02
2022-09-27T09:51:19.192Z,13.81
2022-09-27T09:53:51.968Z,13.81
2022-09-27T09:56:28.479Z,13.99
2022-09-27T09:59:02.585Z,14.19
2022-09-27T10:01:44.813Z,14.32
2022-09-27T10:04:19.034Z,14.49
2022-09-27T10:06:46.173Z,14.72
2022-09-27T10:09:17.950Z,14.73
2022-09-27T10:12:07.529Z,14.48
2022-09-27T10:14:35.650Z,14.25
2022-09-27T10:17:09.621Z,14.09
2022-09-27T10:19:39.531Z,13.63
2022-09-27T10:22:25.124Z,13.31
2022-09-27T10:25:06.757Z,13.32
2022-09-27T10:27:59.115Z,13.28
2022-09-27T10:30:32.598Z,13.50
2022-09-27T10:33:17.814Z,13.48
2022-09-27T10:35:49.473Z,13.42
2022-09-27T10:38:33.305Z,13.39
2022-09-27T10:41:34.782Z,13.23
2022-09-27T10:44:18.192Z,13.35
2022-09-27T10:46:50.562Z,13.34
2022-09-27T10:49:41.534Z,13.40
2022-09-27T10:52:34.228Z,13.42
2022-09-27T10:55:24.763Z,13.17
2022-09-27T10:57:55.216Z,13.05
2022-09-27T11:00:42.761Z,13.11
2022-09-27T11:03:16.344Z,13.12
2022-09-27T11:05:44.803Z,13.03
2022-09-27T11:08:24.163Z,12.89
2022-09-27T11:11:27.570Z,13.04
2022-09-27T11:14:07.955Z,13.38
2022-09-27T11:16:46.069Z,13.54
2022-09-27T11:19:23.271Z,13.38
2022-09-27T11:21:59.394Z,13.49
2022-09-27T11:25:03.216Z,13.72
2022-09-27T11:28:12.696Z,13.92
2022-09-27T11:30:45.771Z,14.13
2022-09-27T11:34:00.270Z,14.33
2022-09-27T11:36:47.536Z,14.73
2022-09-27T11:39:36.878Z,14.88
2022-09-27T11:42:16.830Z,15.02
2022-09-27T11:44:53.355Z,14.86
2022-09-27T11:48:16.595Z,14.84
2022-09-27T11:51:18.853Z,14.83
2022-09-27T11:54:20.998Z,14.67
2022-09-27T11:56:58.575Z,14.55
2022-09-27T12:00:02.240Z,14.48
2022-09-27T12:03:02.706Z,14.18
2022-09-27T12:05:58.290Z,13.94
2022-09-27T12:08:45.007Z,13.69
2022-09-27T12:11:23.481Z,13.32
2022-09-27T12:14:05.732Z,12.90
2022-09-27T12:16:33.082Z,12.65
2022-09-27T12:19:02.103Z,12.27
2022-09-27T12:21:50.587Z,12.16
2022-09-27T12:24:24.264Z,12.21
2022-09-27T12:27:35.246Z,12.39
2022-09-27T12:30:03.182Z,12.48
2022-09-27T12:32:38.717Z,12.61
2022-09-27T12:35:26.737Z,12.64
2022-09-27T12:37:59.497Z,12.49
2022-09-27T12:40:41.207Z,12.48
2022-09-27T12:43:19.361Z,12.46
2022-09-27T12:46:15.661Z,12.50
2022-09-27T12:49:15.190Z,12.84
2022-09-27T12:51:56.352Z,13.06
2022-09-27T12:54:37.677Z,13.35
2022-09-27T12:57:14.618Z,13.45
2022-09-27T13:00:16.514Z,13.57
2022-09-27T13:03:26.568Z,13.67
2022-09-27T13:06:24.903Z,13.77
2022-09-27T13:09:10.917Z,14.03
2022-09-27T13:12:03.547Z,14.39
2022-09-27T13:14:38.426Z,14.49
2022-09-27T13:17:05.395Z,14.49
2022-09-27T13:19:45.705Z,14.53
2022-09-27T13:22:27.630Z,14.56
2022-09-27T13:25:54.275Z,14.70
2022-09-27T13:28:58.329Z,14.91
2022-09-27T13:31:53.888Z,15.23
2022-09-27T13:34:48.194Z,15.32
2022-09-27T13:37:43.051Z,15.15
2022-09-27T13:40:15.951Z,15.23
2022-09-27T13:43:13.343Z,14.93
2022-09-27T13:45:55.295Z,14.70
2022-09-27T13:48:43.886Z,14.70
2022-09-27T13:51:17.141Z,14.61
2022-09-27T13:53:56.998Z,14.47
2022-09-27T13:56:46.771Z,14.32
2022-09-27T13:59:17.677Z,14.12
2022-09-27T14:01:50.601Z,14.10
2022-09-27T14:04:28.113Z,14.13
2022-09-27T14:07:02.412Z,14.24
2022-09-27T14:09:32.179Z,14.22
2022-09-27T14:12:16.534Z,14.20
2022-09-27T14:14:43.630Z,14.11
2022-09-27T14:17:10.788Z,14.08
2022-09-27T14:19:43.953Z,13.97
2022-09-27T14:22:18.315Z,13.89
2022-09-27T14:25:16.828Z,13.90
2022-09-27T14:27:45.248Z,13.78
2022-09-27T14:30:32.030Z,13.66
2022-09-27T14:33:29.918Z,13.59
2022-09-27T14:36:21.701Z,13.40
2022-09-27T14:38:53.006Z,13.08
2022-09-27T14:41:26.391Z,12.96
2022-09-27T14:43:53.819Z,12.76
2022-09-27T14:46:29.180Z,12.63
2022-09-27T14:48:56.455Z,12.50
2022-09-27T14:51:31.962Z,12.54
2022-09-27T14:54:05.601Z,12.69
2022-09-27T14:56:36.206Z,12.76
2022-09-27T14:59:05.669Z,12.85
2022-09-27T15:01:33.024Z,12.78
2022-09-27T15:04:07.930Z,12.62
2022-09-27T15:06:37.884Z,12.62
2022-09-27T15:09:06.284Z,12.67
2022-09-27T15:11:34.757Z,12.46
2022-09-27T15:14:03.326Z,12.36
2022-09-27T15:16:31.321Z,12.45
2022-09-27T15:19:03.839Z,12.51
2022-09-27T15:21:35.502Z,12.48
2022-09-27T15:24:03.179Z,12.27
2022-09-27T15:26:59.378Z,12.22
2022-09-27T15:29:26.550Z,12.28
2022-09-27T15:32:07.207Z,12.33
2022-09-27T15:34:34.444Z,12.40
2022-09-27T15:37:06.282Z,12.31
2022-09-27T15:39:35.307Z,12.18
2022-09-27T15:42:19.856Z,12.14
2022-09-27T15:44:49.649Z,12.11
2022-09-27T15:47:40.792Z,12.22
2022-09-27T15:50:16.619Z,12.35
2022-09-27T15:52:50.827Z,12.25
2022-09-27T15:55:19.772Z,12.09
2022-09-27T15:57:50.648Z,11.94
2022-09-27T16:00:18.707Z,11.89
2022-09-27T16:02:46.017Z,11.93
2022-09-27T16:05:13.814Z,11.83
2022-09-27T16:07:40.744Z,11.72
2022-09-27T16:10:18.984Z,11.65
2022-09-27T16:12:45.875Z,11.57
2022-09-27T16:15:13.870Z,11.51
2022-09-27T16:17:42.761Z,11.62
2022-09-27T16:20:25.105Z,11.55
2022-09-27T16:22:52.880Z,11.53
2022-09-27T16:25:20.514Z,11.62
2022-09-27T16:27:47.480Z,11.62
2022-09-27T16:30:14.643Z,11.53
2022-09-27T16:32:45.915Z,11.60
2022-09-27T16:35:16.087Z,11.77
2022-09-27T16:37:43.057Z,11.96
2022-09-27T16:40:11.052Z,12.11
2022-09-27T16:42:38.193Z,12.11
2022-09-27T16:45:10.517Z,12.12
2022-09-27T16:47:38.699Z,12.12
2022-09-27T16:50:24.478Z,12.07
2022-09-27T16:52:52.367Z,12.03
2022-09-27T16:55:20.817Z,12.07
2022-09-27T16:57:48.726Z,12.12
2022-09-27T17:00:16.030Z,12.13
2022-09-27T17:02:47.117Z,12.11
2022-09-27T17:05:14.754Z,12.10
2022-09-27T17:07:41.430Z,12.07
2022-09-27T17:10:09.191Z,12.04
2022-09-27T17:12:36.119Z,12.01
2022-09-27T17:15:02.923Z,11.94
2022-09-27T17:17:29.961Z,11.88
2022-09-27T17:19:56.805Z,11.88
2022-09-27T17:22:23.590Z,11.84
2022-09-27T17:24:51.271Z,11.87
2022-09-27T17:27:18.270Z,11.92
2022-09-27T17:29:45.200Z,11.97
2022-09-27T17:32:13.672Z,11.94
2022-09-27T17:34:43.661Z,11.88
2022-09-27T17:37:13.754Z,11.90
2022-09-27T17:39:41.819Z,11.84
2022-09-27T17:42:08.607Z,11.83
2022-09-27T17:44:37.246Z,11.80
2022-09-27T17:47:23.094Z,11.84
2022-09-27T17:50:08.404Z,11.99
2022-09-27T17:52:35.298Z,12.14
2022-09-27T17:55:03.431Z,12.27
2022-09-27T17:57:30.458Z,12.38
2022-09-27T17:59:58.048Z,12.49
2022-09-27T18:02:25.721Z,12.58
2022-09-27T18:04:52.731Z,12.66
2022-09-27T18:07:20.118Z,12.74
2022-09-27T18:09:47.111Z,12.79
2022-09-27T18:12:14.627Z,12.84
2022-09-27T18:14:41.882Z,12.90
2022-09-27T18:17:13.033Z,12.94
2022-09-27T18:19:40.432Z,12.99
2022-09-27T18:22:07.377Z,13.03
2022-09-27T18:24:34.149Z,13.06
2022-09-27T18:27:02.182Z,13.10
2022-09-27T18:29:29.105Z,13.13
2022-09-27T18:31:55.824Z,13.18
2022-09-27T18:34:23.606Z,13.21
2022-09-27T18:36:50.238Z,13.25
2022-09-27T18:39:21.112Z,13.27
2022-09-27T18:41:51.597Z,13.30
2022-09-27T18:44:18.612Z,13.41
2022-09-27T18:46:55.458Z,13.39
2022-09-27T18:49:25.751Z,13.39
2022-09-27T18:51:54.893Z,13.41
2022-09-27T18:54:22.683Z,13.41
2022-09-27T18:56:50.627Z,13.43
2022-09-27T18:59:17.604Z,13.44
2022-09-27T19:01:48.055Z,13.45
2022-09-27T19:04:21.482Z,13.48
2022-09-27T19:06:50.841Z,13.50
2022-09-27T19:09:17.783Z,13.54
2022-09-27T19:11:45.172Z,13.55
2022-09-27T19:14:17.107Z,13.56
2022-09-27T19:16:46.959Z,13.59
2022-09-27T19:19:17.235Z,13.61
2022-09-27T19:21:44.354Z,13.63
2022-09-27T19:24:11.887Z,13.65
2022-09-27T19:26:38.648Z,13.65
2022-09-27T19:29:06.457Z,13.67
2022-09-27T19:31:33.943Z,13.67
2022-09-27T19:34:00.895Z,13.69
2022-09-27T19:36:28.019Z,13.70
2022-09-27T19:38:58.502Z,13.69
2022-09-27T19:41:25.933Z,13.69
2022-09-27T19:43:53.442Z,13.70
2022-09-27T19:46:21.183Z,13.73
2022-09-27T19:48:49.163Z,13.73
2022-09-27T19:51:18.195Z,13.74
2022-09-27T19:53:45.391Z,13.75
2022-09-27T19:56:12.746Z,13.77
2022-09-27T19:58:40.997Z,13.80
2022-09-27T20:01:12.787Z,13.79
2022-09-27T20:03:41.200Z,13.79
2022-09-27T20:06:10.214Z,13.78
2022-09-27T20:08:37.070Z,13.81
2022-09-27T20:11:09.250Z,13.81
2022-09-27T20:13:37.068Z,13.82
2022-09-27T20:16:05.966Z,13.85
2022-09-27T20:18:33.196Z,13.87
2022-09-27T20:21:02.172Z,13.88
2022-09-27T20:23:29.775Z,13.87
2022-09-27T20:26:04.133Z,13.88
2022-09-27T20:28:30.876Z,13.90
2022-09-27T20:31:02.210Z,13.92
2022-09-27T20:33:41.316Z,13.94
2022-09-27T20:36:15.718Z,13.94
2022-09-27T20:38:54.506Z,13.96
2022-09-27T20:41:24.818Z,13.98
2022-09-27T20:43:54.040Z,13.99
2022-09-27T20:46:21.167Z,14.00
2022-09-27T20:48:52.283Z,14.00
2022-09-27T20:51:19.094Z,14.00
2022-09-27T20:53:49.334Z,13.98
2022-09-27T20:56:27.725Z,13.89
2022-09-27T20:58:55.638Z,13.93
2022-09-27T21:01:23.856Z,13.94
2022-09-27T21:03:57.731Z,13.97
2022-09-27T21:06:24.858Z,13.98
2022-09-27T21:08:51.811Z,13.99
2022-09-27T21:11:19.310Z,13.99
2022-09-27T21:13:47.317Z,14.01
2022-09-27T21:16:26.462Z,14.02
2022-09-27T21:18:55.019Z,14.03
2022-09-27T21:21:22.566Z,14.03
2022-09-27T21:23:54.187Z,14.02
2022-09-27T21:26:22.096Z,14.05
2022-09-27T21:28:51.006Z,14.04
2022-09-27T21:31:23.274Z,14.03
2022-09-27T21:33:55.041Z,14.05
2022-09-27T21:36:23.604Z,14.05
2022-09-27T21:38:50.927Z,14.06
2022-09-27T21:41:18.162Z,14.06
2022-09-27T21:43:46.740Z,14.08
2022-09-27T21:46:15.644Z,14.09
2022-09-27T21:48:44.892Z,14.09
2022-09-27T21:51:28.656Z,14.08
2022-09-27T21:54:02.912Z,14.09
2022-09-27T21:56:33.570Z,14.08
2022-09-27T21:59:00.212Z,14.20
2022-09-27T22:01:29.635Z,14.14
2022-09-27T22:03:57.060Z,14.11
2022-09-27T22:06:26.123Z,14.11
2022-09-27T22:08:53.820Z,14.12
2022-09-27T22:11:22.896Z,14.14
2022-09-27T22:13:49.964Z,14.17
2022-09-27T22:16:18.490Z,14.19
2022-09-27T22:18:49.328Z,14.19
2022-09-27T22:21:18.635Z,14.20
2022-09-27T22:23:45.597Z,14.21
2022-09-27T22:26:13.749Z,14.22
2022-09-27T22:28:40.823Z,14.24
2022-09-27T22:31:08.571Z,14.24
2022-09-27T22:33:35.570Z,14.25
2022-09-27T22:36:02.662Z,14.26
2022-09-27T22:38:30.513Z,14.27
2022-09-27T22:40:59.806Z,14.28
2022-09-27T22:43:28.549Z,14.29
2022-09-27T22:45:56.390Z,14.30
2022-09-27T22:48:23.244Z,14.31
2022-09-27T22:50:49.853Z,14.32
2022-09-27T22:53:16.604Z,14.33
2022-09-27T22:55:43.263Z,14.34
2022-09-27T22:58:09.965Z,14.35
2022-09-27T23:00:38.685Z,14.36
2022-09-27T23:03:05.522Z,14.36
2022-09-27T23:05:32.170Z,14.37
2022-09-27T23:07:58.878Z,14.36
2022-09-27T23:10:25.527Z,14.38
2022-09-27T23:12:55.110Z,14.39
2022-09-27T23:15:21.848Z,14.39
2022-09-27T23:17:51.754Z,14.39
2022-09-27T23:20:18.920Z,14.40
2022-09-27T23:22:45.632Z,14.41
2022-09-27T23:25:12.712Z,14.45
2022-09-27T23:27:42.140Z,14.45
2022-09-27T23:30:10.176Z,14.42
2022-09-27T23:32:37.012Z,14.40
2022-09-27T23:35:04.092Z,14.41
2022-09-27T23:37:30.824Z,14.40
2022-09-27T23:39:57.559Z,14.40
2022-09-27T23:42:24.208Z,14.43
2022-09-27T23:44:52.683Z,14.44
2022-09-27T23:47:19.364Z,14.43
2022-09-27T23:49:46.105Z,14.44
2022-09-27T23:52:12.788Z,14.45
2022-09-27T23:54:39.635Z,14.45
2022-09-27T23:57:06.331Z,14.46
2022-09-27T23:59:33.306Z,14.47
